sensor_id;sensor_type;location;lat;lon;timestamp;pressure;altitude;pressure_sealevel;temperature;humidity
6028;BME280;3042;43.194;27.646;2023-08-07T00:01:42;100553.25;;;27.40;100.00
6028;BME280;3042;43.194;27.646;2023-08-07T00:04:10;100551.69;;;27.32;100.00
6028;BME280;3042;43.194;27.646;2023-08-07T00:06:37;100554.28;;;27.34;100.00
6028;BME280;3042;43.194;27.646;2023-08-07T00:09:05;100549.44;;;27.15;100.00
6028;BME280;3042;43.194;27.646;2023-08-07T00:11:32;100556.53;;;27.16;100.00
6028;BME280;3042;43.194;27.646;2023-08-07T00:13:59;100395.38;;;26.28;100.00
6028;BME280;3042;43.194;27.646;2023-08-07T00:16:26;100554.63;;;27.22;100.00
6028;BME280;3042;43.194;27.646;2023-08-07T00:18:54;100547.41;;;27.27;100.00
6028;BME280;3042;43.194;27.646;2023-08-07T00:21:21;100534.13;;;27.28;100.00
6028;BME280;3042;43.194;27.646;2023-08-07T00:23:48;100546.91;;;27.45;100.00
6028;BME280;3042;43.194;27.646;2023-08-07T00:26:18;100419.25;;;26.61;100.00
6028;BME280;3042;43.194;27.646;2023-08-07T00:28:45;100555.25;;;27.31;100.00
6028;BME280;3042;43.194;27.646;2023-08-07T00:31:12;100553.94;;;27.46;100.00
6028;BME280;3042;43.194;27.646;2023-08-07T00:33:39;100459.91;;;26.92;100.00
6028;BME280;3042;43.194;27.646;2023-08-07T00:36:07;100524.53;;;27.23;100.00
6028;BME280;3042;43.194;27.646;2023-08-07T00:38:35;100585.63;;;27.21;100.00
6028;BME280;3042;43.194;27.646;2023-08-07T00:41:02;100575.59;;;27.31;100.00
6028;BME280;3042;43.194;27.646;2023-08-07T00:43:30;100585.63;;;27.21;100.00
6028;BME280;3042;43.194;27.646;2023-08-07T00:45:57;100579.94;;;27.35;100.00
6028;BME280;3042;43.194;27.646;2023-08-07T00:48:25;100575.22;;;27.45;100.00
6028;BME280;3042;43.194;27.646;2023-08-07T00:50:52;100568.81;;;27.52;100.00
6028;BME280;3042;43.194;27.646;2023-08-07T00:53:20;100578.38;;;27.57;100.00
6028;BME280;3042;43.194;27.646;2023-08-07T00:55:48;100560.00;;;27.51;100.00
6028;BME280;3042;43.194;27.646;2023-08-07T00:58:15;100593.59;;;27.52;100.00
6028;BME280;3042;43.194;27.646;2023-08-07T01:00:44;100593.63;;;27.51;100.00
6028;BME280;3042;43.194;27.646;2023-08-07T01:03:12;100599.88;;;27.48;100.00
6028;BME280;3042;43.194;27.646;2023-08-07T01:05:40;100600.13;;;27.39;100.00
6028;BME280;3042;43.194;27.646;2023-08-07T01:08:07;100605.28;;;27.45;100.00
6028;BME280;3042;43.194;27.646;2023-08-07T01:10:44;100611.44;;;27.47;100.00
6028;BME280;3042;43.194;27.646;2023-08-07T01:13:19;100618.47;;;27.48;100.00
6028;BME280;3042;43.194;27.646;2023-08-07T01:15:52;100617.81;;;27.40;100.00
6028;BME280;3042;43.194;27.646;2023-08-07T01:18:22;100613.28;;;27.44;100.00
6028;BME280;3042;43.194;27.646;2023-08-07T01:20:50;100619.50;;;27.43;100.00
6028;BME280;3042;43.194;27.646;2023-08-07T01:23:19;100630.97;;;27.45;100.00
6028;BME280;3042;43.194;27.646;2023-08-07T01:25:46;100639.06;;;27.40;100.00
6028;BME280;3042;43.194;27.646;2023-08-07T01:28:17;100646.19;;;27.38;100.00
6028;BME280;3042;43.194;27.646;2023-08-07T01:30:48;100633.84;;;27.37;100.00
6028;BME280;3042;43.194;27.646;2023-08-07T01:33:24;100640.97;;;27.35;100.00
6028;BME280;3042;43.194;27.646;2023-08-07T01:35:55;100280.66;;;25.20;100.00
6028;BME280;3042;43.194;27.646;2023-08-07T01:38:26;100656.72;;;27.41;100.00
6028;BME280;3042;43.194;27.646;2023-08-07T01:40:54;100662.63;;;27.51;100.00
6028;BME280;3042;43.194;27.646;2023-08-07T01:43:22;100661.72;;;27.53;100.00
6028;BME280;3042;43.194;27.646;2023-08-07T01:45:49;100668.25;;;27.73;100.00
6028;BME280;3042;43.194;27.646;2023-08-07T01:48:16;100557.72;;;27.05;100.00
6028;BME280;3042;43.194;27.646;2023-08-07T01:50:43;100683.63;;;27.60;100.00
6028;BME280;3042;43.194;27.646;2023-08-07T01:53:10;100682.59;;;27.66;100.00
6028;BME280;3042;43.194;27.646;2023-08-07T01:55:39;100678.88;;;27.73;100.00
6028;BME280;3042;43.194;27.646;2023-08-07T01:58:06;100678.66;;;27.79;100.00
6028;BME280;3042;43.194;27.646;2023-08-07T02:00:33;100688.34;;;27.83;100.00
6028;BME280;3042;43.194;27.646;2023-08-07T02:03:00;100674.78;;;27.92;100.00
6028;BME280;3042;43.194;27.646;2023-08-07T02:05:27;100678.13;;;28.01;100.00
6028;BME280;3042;43.194;27.646;2023-08-07T02:07:54;100680.00;;;27.95;100.00
6028;BME280;3042;43.194;27.646;2023-08-07T02:10:22;100700.00;;;27.76;100.00
6028;BME280;3042;43.194;27.646;2023-08-07T02:12:51;100701.97;;;27.69;100.00
6028;BME280;3042;43.194;27.646;2023-08-07T02:15:18;100702.63;;;27.77;100.00
6028;BME280;3042;43.194;27.646;2023-08-07T02:17:45;100647.91;;;27.39;100.00
6028;BME280;3042;43.194;27.646;2023-08-07T02:20:12;100696.63;;;27.71;100.00
6028;BME280;3042;43.194;27.646;2023-08-07T02:22:39;100697.22;;;27.81;100.00
6028;BME280;3042;43.194;27.646;2023-08-07T02:25:07;100703.38;;;27.84;100.00
6028;BME280;3042;43.194;27.646;2023-08-07T02:27:34;100702.41;;;27.87;100.00
6028;BME280;3042;43.194;27.646;2023-08-07T02:30:04;100712.25;;;27.83;100.00
6028;BME280;3042;43.194;27.646;2023-08-07T02:32:31;100714.22;;;27.75;100.00
6028;BME280;3042;43.194;27.646;2023-08-07T02:34:59;100533.63;;;26.44;100.00
6028;BME280;3042;43.194;27.646;2023-08-07T02:37:26;100733.09;;;27.64;100.00
6028;BME280;3042;43.194;27.646;2023-08-07T02:39:53;100737.16;;;27.07;100.00
6028;BME280;3042;43.194;27.646;2023-08-07T02:42:20;100731.19;;;27.35;100.00
6028;BME280;3042;43.194;27.646;2023-08-07T02:44:47;100702.06;;;27.32;100.00
6028;BME280;3042;43.194;27.646;2023-08-07T02:47:16;100747.25;;;27.30;100.00
6028;BME280;3042;43.194;27.646;2023-08-07T02:49:43;100749.16;;;27.24;100.00
6028;BME280;3042;43.194;27.646;2023-08-07T02:52:10;100751.06;;;27.17;100.00
6028;BME280;3042;43.194;27.646;2023-08-07T02:54:37;100755.72;;;27.07;100.00
6028;BME280;3042;43.194;27.646;2023-08-07T02:57:04;100751.38;;;27.03;100.00
6028;BME280;3042;43.194;27.646;2023-08-07T02:59:32;100754.97;;;27.02;100.00
6028;BME280;3042;43.194;27.646;2023-08-07T03:01:59;100738.97;;;27.05;100.00
6028;BME280;3042;43.194;27.646;2023-08-07T03:04:27;100737.88;;;27.14;100.00
6028;BME280;3042;43.194;27.646;2023-08-07T03:06:54;100751.16;;;27.12;100.00
6028;BME280;3042;43.194;27.646;2023-08-07T03:09:21;100766.56;;;26.97;100.00
6028;BME280;3042;43.194;27.646;2023-08-07T03:11:48;100707.03;;;26.71;100.00
6028;BME280;3042;43.194;27.646;2023-08-07T03:14:16;100749.59;;;27.04;100.00
6028;BME280;3042;43.194;27.646;2023-08-07T03:16:43;100754.16;;;26.99;100.00
6028;BME280;3042;43.194;27.646;2023-08-07T03:19:11;100754.06;;;27.02;100.00
6028;BME280;3042;43.194;27.646;2023-08-07T03:21:40;100758.59;;;26.98;100.00
6028;BME280;3042;43.194;27.646;2023-08-07T03:24:07;100748.94;;;26.95;100.00
6028;BME280;3042;43.194;27.646;2023-08-07T03:26:34;100756.97;;;26.91;100.00
6028;BME280;3042;43.194;27.646;2023-08-07T03:29:01;100759.75;;;26.86;100.00
6028;BME280;3042;43.194;27.646;2023-08-07T03:31:28;100760.53;;;26.90;100.00
6028;BME280;3042;43.194;27.646;2023-08-07T03:33:55;100759.56;;;26.94;100.00
6028;BME280;3042;43.194;27.646;2023-08-07T03:36:22;100761.38;;;26.92;100.00
6028;BME280;3042;43.194;27.646;2023-08-07T03:38:51;100758.72;;;26.92;100.00
6028;BME280;3042;43.194;27.646;2023-08-07T03:41:18;100763.97;;;26.95;100.00
6028;BME280;3042;43.194;27.646;2023-08-07T03:43:47;100756.69;;;27.03;100.00
6028;BME280;3042;43.194;27.646;2023-08-07T03:46:14;100769.94;;;27.05;100.00
6028;BME280;3042;43.194;27.646;2023-08-07T03:48:41;100751.63;;;27.31;100.00
6028;BME280;3042;43.194;27.646;2023-08-07T03:51:08;100759.16;;;27.48;100.00
6028;BME280;3042;43.194;27.646;2023-08-07T03:53:36;100746.25;;;27.69;100.00
6028;BME280;3042;43.194;27.646;2023-08-07T03:56:05;100753.97;;;27.78;100.00
6028;BME280;3042;43.194;27.646;2023-08-07T03:58:32;100750.16;;;27.88;100.00
6028;BME280;3042;43.194;27.646;2023-08-07T04:00:59;100752.41;;;28.04;100.00
6028;BME280;3042;43.194;27.646;2023-08-07T04:03:26;100755.81;;;28.09;100.00
6028;BME280;3042;43.194;27.646;2023-08-07T04:05:54;100701.00;;;28.05;100.00
6028;BME280;3042;43.194;27.646;2023-08-07T04:08:22;100745.56;;;28.57;100.00
6028;BME280;3042;43.194;27.646;2023-08-07T04:10:58;100739.53;;;28.80;100.00
6028;BME280;3042;43.194;27.646;2023-08-07T04:13:29;100745.03;;;29.02;100.00
6028;BME280;3042;43.194;27.646;2023-08-07T04:15:56;100750.34;;;29.02;100.00
6028;BME280;3042;43.194;27.646;2023-08-07T04:18:24;100738.31;;;29.19;100.00
6028;BME280;3042;43.194;27.646;2023-08-07T04:20:52;100738.34;;;29.45;100.00
6028;BME280;3042;43.194;27.646;2023-08-07T04:23:20;100728.22;;;29.55;100.00
6028;BME280;3042;43.194;27.646;2023-08-07T04:25:47;100734.22;;;29.87;100.00
6028;BME280;3042;43.194;27.646;2023-08-07T04:28:14;100733.91;;;29.96;100.00
6028;BME280;3042;43.194;27.646;2023-08-07T04:30:43;100742.03;;;30.17;100.00
6028;BME280;3042;43.194;27.646;2023-08-07T04:33:11;100740.19;;;30.19;100.00
6028;BME280;3042;43.194;27.646;2023-08-07T04:35:38;100741.81;;;30.23;100.00
6028;BME280;3042;43.194;27.646;2023-08-07T04:38:05;100725.81;;;30.23;100.00
6028;BME280;3042;43.194;27.646;2023-08-07T04:40:32;100753.41;;;30.22;100.00
6028;BME280;3042;43.194;27.646;2023-08-07T04:42:59;100756.06;;;30.22;100.00
6028;BME280;3042;43.194;27.646;2023-08-07T04:45:27;100731.59;;;30.58;100.00
6028;BME280;3042;43.194;27.646;2023-08-07T04:47:56;100739.50;;;30.84;100.00
6028;BME280;3042;43.194;27.646;2023-08-07T04:50:23;100737.72;;;30.83;100.00
6028;BME280;3042;43.194;27.646;2023-08-07T04:52:50;100750.63;;;30.72;100.00
6028;BME280;3042;43.194;27.646;2023-08-07T04:55:17;100746.03;;;30.76;100.00
6028;BME280;3042;43.194;27.646;2023-08-07T04:57:44;100739.13;;;30.94;100.00
6028;BME280;3042;43.194;27.646;2023-08-07T05:00:13;100736.75;;;31.08;100.00
6028;BME280;3042;43.194;27.646;2023-08-07T05:02:40;100741.06;;;31.32;100.00
6028;BME280;3042;43.194;27.646;2023-08-07T05:05:09;100724.16;;;31.54;100.00
6028;BME280;3042;43.194;27.646;2023-08-07T05:07:36;100743.53;;;31.59;100.00
6028;BME280;3042;43.194;27.646;2023-08-07T05:10:02;100750.56;;;31.62;100.00
6028;BME280;3042;43.194;27.646;2023-08-07T05:12:30;100754.47;;;31.53;100.00
6028;BME280;3042;43.194;27.646;2023-08-07T05:14:57;100749.13;;;31.53;100.00
6028;BME280;3042;43.194;27.646;2023-08-07T05:17:24;100746.88;;;31.85;100.00
6028;BME280;3042;43.194;27.646;2023-08-07T05:19:52;100747.16;;;31.99;100.00
6028;BME280;3042;43.194;27.646;2023-08-07T05:22:20;100758.22;;;31.69;100.00
6028;BME280;3042;43.194;27.646;2023-08-07T05:24:47;100759.78;;;31.75;100.00
6028;BME280;3042;43.194;27.646;2023-08-07T05:27:14;100785.41;;;31.37;100.00
6028;BME280;3042;43.194;27.646;2023-08-07T05:29:42;100761.44;;;31.57;100.00
6028;BME280;3042;43.194;27.646;2023-08-07T05:32:12;100760.75;;;31.72;100.00
6028;BME280;3042;43.194;27.646;2023-08-07T05:34:40;100653.28;;;31.25;100.00
6028;BME280;3042;43.194;27.646;2023-08-07T05:37:08;100749.31;;;32.10;100.00
6028;BME280;3042;43.194;27.646;2023-08-07T05:39:36;100757.53;;;32.26;100.00
6028;BME280;3042;43.194;27.646;2023-08-07T05:42:05;100755.50;;;32.31;100.00
6028;BME280;3042;43.194;27.646;2023-08-07T05:44:34;100758.28;;;32.48;100.00
6028;BME280;3042;43.194;27.646;2023-08-07T05:47:05;100747.97;;;32.59;100.00
6028;BME280;3042;43.194;27.646;2023-08-07T05:49:33;100504.47;;;31.28;100.00
6028;BME280;3042;43.194;27.646;2023-08-07T05:52:00;100759.81;;;32.73;100.00
6028;BME280;3042;43.194;27.646;2023-08-07T05:54:27;100764.88;;;32.79;100.00
6028;BME280;3042;43.194;27.646;2023-08-07T05:56:56;100761.84;;;32.68;100.00
6028;BME280;3042;43.194;27.646;2023-08-07T05:59:23;100781.16;;;32.35;100.00
6028;BME280;3042;43.194;27.646;2023-08-07T06:01:50;100780.75;;;32.44;100.00
6028;BME280;3042;43.194;27.646;2023-08-07T06:04:17;100742.13;;;32.31;100.00
6028;BME280;3042;43.194;27.646;2023-08-07T06:06:44;100670.38;;;31.82;100.00
6028;BME280;3042;43.194;27.646;2023-08-07T06:09:11;100803.69;;;32.10;100.00
6028;BME280;3042;43.194;27.646;2023-08-07T06:11:46;100801.28;;;32.25;100.00
6028;BME280;3042;43.194;27.646;2023-08-07T06:14:20;100785.72;;;32.53;100.00
6028;BME280;3042;43.194;27.646;2023-08-07T06:16:47;100778.63;;;32.71;100.00
6028;BME280;3042;43.194;27.646;2023-08-07T06:19:14;100784.81;;;32.91;100.00
6028;BME280;3042;43.194;27.646;2023-08-07T06:21:43;100794.59;;;32.73;99.89
6028;BME280;3042;43.194;27.646;2023-08-07T06:24:10;100788.00;;;32.80;100.00
6028;BME280;3042;43.194;27.646;2023-08-07T06:26:39;100790.75;;;32.97;100.00
6028;BME280;3042;43.194;27.646;2023-08-07T06:29:06;100804.22;;;32.77;100.00
6028;BME280;3042;43.194;27.646;2023-08-07T06:31:35;100794.97;;;32.84;100.00
6028;BME280;3042;43.194;27.646;2023-08-07T06:34:03;100793.38;;;32.80;100.00
6028;BME280;3042;43.194;27.646;2023-08-07T06:36:30;100806.84;;;32.59;98.84
6028;BME280;3042;43.194;27.646;2023-08-07T06:38:57;100794.97;;;32.84;100.00
6028;BME280;3042;43.194;27.646;2023-08-07T06:41:24;100802.94;;;32.86;99.27
6028;BME280;3042;43.194;27.646;2023-08-07T06:43:51;100789.75;;;32.81;97.81
6028;BME280;3042;43.194;27.646;2023-08-07T06:46:18;100800.16;;;32.68;95.31
6028;BME280;3042;43.194;27.646;2023-08-07T06:48:51;100823.06;;;32.36;94.39
6028;BME280;3042;43.194;27.646;2023-08-07T06:51:18;100815.84;;;32.17;93.41
6028;BME280;3042;43.194;27.646;2023-08-07T06:53:49;100831.66;;;32.03;94.68
6028;BME280;3042;43.194;27.646;2023-08-07T06:56:18;100832.31;;;31.86;94.97
6028;BME280;3042;43.194;27.646;2023-08-07T06:58:46;100839.19;;;31.71;95.99
6028;BME280;3042;43.194;27.646;2023-08-07T07:01:15;100865.34;;;31.43;97.43
6028;BME280;3042;43.194;27.646;2023-08-07T07:03:43;100858.13;;;31.45;97.46
6028;BME280;3042;43.194;27.646;2023-08-07T07:06:14;100821.88;;;31.38;98.39
6028;BME280;3042;43.194;27.646;2023-08-07T07:08:42;100821.81;;;31.82;99.81
6028;BME280;3042;43.194;27.646;2023-08-07T07:11:11;100810.63;;;31.94;98.77
6028;BME280;3042;43.194;27.646;2023-08-07T07:13:40;100795.44;;;31.96;98.66
6028;BME280;3042;43.194;27.646;2023-08-07T07:16:09;100799.31;;;32.28;98.33
6028;BME280;3042;43.194;27.646;2023-08-07T07:18:38;100796.66;;;32.47;99.26
6028;BME280;3042;43.194;27.646;2023-08-07T07:21:07;100804.44;;;32.33;96.55
6028;BME280;3042;43.194;27.646;2023-08-07T07:23:36;100797.59;;;32.46;97.65
6028;BME280;3042;43.194;27.646;2023-08-07T07:26:03;100816.16;;;32.30;96.46
6028;BME280;3042;43.194;27.646;2023-08-07T07:28:31;100820.31;;;32.17;94.96
6028;BME280;3042;43.194;27.646;2023-08-07T07:30:58;100815.28;;;32.30;95.86
6028;BME280;3042;43.194;27.646;2023-08-07T07:33:25;100820.50;;;32.33;96.14
6028;BME280;3042;43.194;27.646;2023-08-07T07:35:53;100802.00;;;32.47;94.46
6028;BME280;3042;43.194;27.646;2023-08-07T07:38:20;100762.06;;;32.24;92.25
6028;BME280;3042;43.194;27.646;2023-08-07T07:40:49;100813.47;;;32.30;90.26
6028;BME280;3042;43.194;27.646;2023-08-07T07:43:16;100812.72;;;32.47;90.41
6028;BME280;3042;43.194;27.646;2023-08-07T07:45:44;100809.25;;;32.45;87.24
6028;BME280;3042;43.194;27.646;2023-08-07T07:48:11;100797.72;;;32.64;87.25
6028;BME280;3042;43.194;27.646;2023-08-07T07:50:38;100780.34;;;32.53;85.86
6028;BME280;3042;43.194;27.646;2023-08-07T07:53:05;100813.06;;;32.60;86.27
6028;BME280;3042;43.194;27.646;2023-08-07T07:55:33;100822.31;;;32.53;86.32
6028;BME280;3042;43.194;27.646;2023-08-07T07:58:02;100811.13;;;32.43;86.75
6028;BME280;3042;43.194;27.646;2023-08-07T08:00:29;100798.56;;;32.45;86.89
6028;BME280;3042;43.194;27.646;2023-08-07T08:02:59;100812.91;;;32.63;86.32
6028;BME280;3042;43.194;27.646;2023-08-07T08:05:26;100652.16;;;31.51;84.95
6028;BME280;3042;43.194;27.646;2023-08-07T08:07:54;100813.72;;;32.45;85.10
6028;BME280;3042;43.194;27.646;2023-08-07T08:10:21;100817.97;;;32.50;86.11
6028;BME280;3042;43.194;27.646;2023-08-07T08:12:48;100823.81;;;32.58;85.25
6028;BME280;3042;43.194;27.646;2023-08-07T08:15:16;100829.78;;;32.45;81.40
6028;BME280;3042;43.194;27.646;2023-08-07T08:17:44;100825.00;;;32.32;81.87
6028;BME280;3042;43.194;27.646;2023-08-07T08:20:12;100832.06;;;32.33;82.11
6028;BME280;3042;43.194;27.646;2023-08-07T08:22:41;100830.66;;;32.45;83.21
6028;BME280;3042;43.194;27.646;2023-08-07T08:25:09;100815.69;;;32.62;82.28
6028;BME280;3042;43.194;27.646;2023-08-07T08:27:37;100807.28;;;32.50;82.30
6028;BME280;3042;43.194;27.646;2023-08-07T08:30:05;100819.53;;;32.54;83.46
6028;BME280;3042;43.194;27.646;2023-08-07T08:32:33;100798.72;;;32.61;83.71
6028;BME280;3042;43.194;27.646;2023-08-07T08:35:01;100815.53;;;32.65;84.59
6028;BME280;3042;43.194;27.646;2023-08-07T08:37:28;100802.50;;;32.76;83.43
6028;BME280;3042;43.194;27.646;2023-08-07T08:39:56;100817.66;;;32.56;81.63
6028;BME280;3042;43.194;27.646;2023-08-07T08:42:23;100817.13;;;32.69;82.51
6028;BME280;3042;43.194;27.646;2023-08-07T08:44:52;100487.09;;;30.58;79.43
6028;BME280;3042;43.194;27.646;2023-08-07T08:47:20;100817.13;;;32.69;83.81
6028;BME280;3042;43.194;27.646;2023-08-07T08:49:50;100819.50;;;32.75;84.10
6028;BME280;3042;43.194;27.646;2023-08-07T08:52:18;100832.28;;;32.68;81.67
6028;BME280;3042;43.194;27.646;2023-08-07T08:54:46;100821.09;;;32.79;83.50
6028;BME280;3042;43.194;27.646;2023-08-07T08:57:14;100816.53;;;32.81;83.97
6028;BME280;3042;43.194;27.646;2023-08-07T08:59:42;100827.16;;;32.64;85.77
6028;BME280;3042;43.194;27.646;2023-08-07T09:02:09;100821.53;;;32.70;80.57
6028;BME280;3042;43.194;27.646;2023-08-07T09:04:37;100821.88;;;32.81;82.62
6028;BME280;3042;43.194;27.646;2023-08-07T09:07:06;100807.00;;;32.94;84.55
6028;BME280;3042;43.194;27.646;2023-08-07T09:09:33;100815.94;;;32.93;86.47
6028;BME280;3042;43.194;27.646;2023-08-07T09:12:01;100815.47;;;33.04;85.36
6028;BME280;3042;43.194;27.646;2023-08-07T09:14:30;100816.81;;;32.94;84.46
6028;BME280;3042;43.194;27.646;2023-08-07T09:17:00;100714.66;;;32.08;81.86
6028;BME280;3042;43.194;27.646;2023-08-07T09:19:28;100826.66;;;32.74;82.97
6028;BME280;3042;43.194;27.646;2023-08-07T09:21:55;100845.03;;;32.63;83.27
6028;BME280;3042;43.194;27.646;2023-08-07T09:24:24;100832.16;;;32.71;82.20
6028;BME280;3042;43.194;27.646;2023-08-07T09:26:51;100828.47;;;32.74;82.69
6028;BME280;3042;43.194;27.646;2023-08-07T09:29:20;100764.94;;;32.58;83.19
6028;BME280;3042;43.194;27.646;2023-08-07T09:31:47;100833.03;;;32.72;83.97
6028;BME280;3042;43.194;27.646;2023-08-07T09:34:14;100825.38;;;32.83;83.21
6028;BME280;3042;43.194;27.646;2023-08-07T09:36:46;100819.00;;;32.86;82.83
6028;BME280;3042;43.194;27.646;2023-08-07T09:39:13;100825.41;;;33.00;83.10
6028;BME280;3042;43.194;27.646;2023-08-07T09:41:42;100818.19;;;33.03;81.25
6028;BME280;3042;43.194;27.646;2023-08-07T09:44:12;100816.38;;;32.84;81.80
6028;BME280;3042;43.194;27.646;2023-08-07T09:46:43;100834.97;;;32.87;79.98
6028;BME280;3042;43.194;27.646;2023-08-07T09:49:10;100821.72;;;33.03;79.25
6028;BME280;3042;43.194;27.646;2023-08-07T09:51:44;100815.09;;;33.12;80.77
6028;BME280;3042;43.194;27.646;2023-08-07T09:54:11;100804.22;;;33.15;81.92
6028;BME280;3042;43.194;27.646;2023-08-07T09:56:43;100803.94;;;33.21;82.65
6028;BME280;3042;43.194;27.646;2023-08-07T09:59:11;100797.53;;;33.24;81.99
6028;BME280;3042;43.194;27.646;2023-08-07T10:01:38;100806.78;;;33.35;83.70
6028;BME280;3042;43.194;27.646;2023-08-07T10:04:08;100814.03;;;33.33;80.26
6028;BME280;3042;43.194;27.646;2023-08-07T10:06:42;100804.56;;;33.26;78.71
6028;BME280;3042;43.194;27.646;2023-08-07T10:09:12;100818.63;;;33.49;79.94
6028;BME280;3042;43.194;27.646;2023-08-07T10:11:42;100741.13;;;33.27;77.39
6028;BME280;3042;43.194;27.646;2023-08-07T10:14:09;100802.16;;;33.56;78.05
6028;BME280;3042;43.194;27.646;2023-08-07T10:16:39;100817.75;;;33.48;77.98
6028;BME280;3042;43.194;27.646;2023-08-07T10:19:07;100703.72;;;33.25;77.71
6028;BME280;3042;43.194;27.646;2023-08-07T10:21:36;100801.31;;;33.73;78.83
6028;BME280;3042;43.194;27.646;2023-08-07T10:24:05;100783.66;;;33.69;80.34
6028;BME280;3042;43.194;27.646;2023-08-07T10:26:34;100797.84;;;33.71;77.40
6028;BME280;3042;43.194;27.646;2023-08-07T10:29:05;100661.91;;;32.86;77.06
6028;BME280;3042;43.194;27.646;2023-08-07T10:31:34;100809.97;;;33.78;76.73
6028;BME280;3042;43.194;27.646;2023-08-07T10:34:02;100785.56;;;33.67;74.61
6028;BME280;3042;43.194;27.646;2023-08-07T10:36:32;100798.31;;;33.97;73.34
6028;BME280;3042;43.194;27.646;2023-08-07T10:39:06;100784.19;;;34.11;73.21
6028;BME280;3042;43.194;27.646;2023-08-07T10:41:38;100788.53;;;34.13;74.15
6028;BME280;3042;43.194;27.646;2023-08-07T10:44:17;100784.97;;;34.13;74.32
6028;BME280;3042;43.194;27.646;2023-08-07T10:46:48;100795.53;;;34.16;74.42
6028;BME280;3042;43.194;27.646;2023-08-07T10:49:30;100790.72;;;34.22;74.42
6028;BME280;3042;43.194;27.646;2023-08-07T10:51:58;100808.88;;;34.00;70.80
6028;BME280;3042;43.194;27.646;2023-08-07T10:54:27;100799.34;;;34.12;70.54
6028;BME280;3042;43.194;27.646;2023-08-07T10:56:55;100792.53;;;34.22;70.51
6028;BME280;3042;43.194;27.646;2023-08-07T10:59:23;100791.53;;;34.40;72.84
6028;BME280;3042;43.194;27.646;2023-08-07T11:01:53;100809.41;;;34.06;70.02
6028;BME280;3042;43.194;27.646;2023-08-07T11:04:22;100789.63;;;33.92;69.16
6028;BME280;3042;43.194;27.646;2023-08-07T11:06:52;100791.31;;;34.28;70.59
6028;BME280;3042;43.194;27.646;2023-08-07T11:09:19;100792.78;;;34.17;70.87
6028;BME280;3042;43.194;27.646;2023-08-07T11:11:48;100794.66;;;34.33;71.84
6028;BME280;3042;43.194;27.646;2023-08-07T11:14:16;100788.59;;;34.45;70.98
6028;BME280;3042;43.194;27.646;2023-08-07T11:16:47;100782.41;;;34.60;71.40
6028;BME280;3042;43.194;27.646;2023-08-07T11:19:16;100777.97;;;34.59;70.94
6028;BME280;3042;43.194;27.646;2023-08-07T11:21:44;100791.81;;;34.52;69.56
6028;BME280;3042;43.194;27.646;2023-08-07T11:24:12;100787.91;;;34.57;68.76
6028;BME280;3042;43.194;27.646;2023-08-07T11:26:42;100787.63;;;34.63;68.62
6028;BME280;3042;43.194;27.646;2023-08-07T11:29:09;100785.22;;;34.75;68.17
6028;BME280;3042;43.194;27.646;2023-08-07T11:31:40;100780.84;;;34.72;68.66
6028;BME280;3042;43.194;27.646;2023-08-07T11:34:10;100630.50;;;33.93;67.79
6028;BME280;3042;43.194;27.646;2023-08-07T11:36:41;100781.63;;;34.90;69.11
6028;BME280;3042;43.194;27.646;2023-08-07T11:39:08;100775.34;;;34.91;68.53
6028;BME280;3042;43.194;27.646;2023-08-07T11:41:35;100770.97;;;35.04;69.44
6028;BME280;3042;43.194;27.646;2023-08-07T11:44:03;100760.50;;;35.16;68.49
6028;BME280;3042;43.194;27.646;2023-08-07T11:46:30;100761.78;;;35.08;66.84
6028;BME280;3042;43.194;27.646;2023-08-07T11:48:58;100772.88;;;35.02;66.89
6028;BME280;3042;43.194;27.646;2023-08-07T11:51:28;100769.34;;;35.18;67.77
6028;BME280;3042;43.194;27.646;2023-08-07T11:53:55;100514.44;;;33.57;66.30
6028;BME280;3042;43.194;27.646;2023-08-07T11:56:25;100744.66;;;35.41;65.46
6028;BME280;3042;43.194;27.646;2023-08-07T11:58:52;100748.59;;;35.36;63.88
6028;BME280;3042;43.194;27.646;2023-08-07T12:01:20;100759.00;;;35.26;64.08
6028;BME280;3042;43.194;27.646;2023-08-07T12:03:52;100740.38;;;35.53;65.04
6028;BME280;3042;43.194;27.646;2023-08-07T12:06:20;100735.50;;;35.60;65.56
6028;BME280;3042;43.194;27.646;2023-08-07T12:08:50;100617.97;;;34.73;62.92
6028;BME280;3042;43.194;27.646;2023-08-07T12:11:20;100662.88;;;34.53;64.43
6028;BME280;3042;43.194;27.646;2023-08-07T12:14:13;100760.00;;;35.39;63.10
6028;BME280;3042;43.194;27.646;2023-08-07T12:16:44;100749.47;;;35.50;62.90
6028;BME280;3042;43.194;27.646;2023-08-07T12:19:11;100744.19;;;35.49;63.15
6028;BME280;3042;43.194;27.646;2023-08-07T12:21:39;100752.16;;;35.50;61.41
6028;BME280;3042;43.194;27.646;2023-08-07T12:24:08;100737.25;;;35.45;60.90
6028;BME280;3042;43.194;27.646;2023-08-07T12:26:35;100749.06;;;35.42;61.89
6028;BME280;3042;43.194;27.646;2023-08-07T12:29:02;100736.59;;;35.41;60.68
6028;BME280;3042;43.194;27.646;2023-08-07T12:31:29;100738.78;;;35.65;60.91
6028;BME280;3042;43.194;27.646;2023-08-07T12:33:56;100725.16;;;35.68;60.03
6028;BME280;3042;43.194;27.646;2023-08-07T12:36:24;100728.03;;;35.65;60.10
6028;BME280;3042;43.194;27.646;2023-08-07T12:38:51;100747.81;;;35.64;59.66
6028;BME280;3042;43.194;27.646;2023-08-07T12:41:19;100754.56;;;35.71;59.09
6028;BME280;3042;43.194;27.646;2023-08-07T12:43:46;100733.22;;;35.68;58.99
6028;BME280;3042;43.194;27.646;2023-08-07T12:46:14;100727.19;;;35.79;58.82
6028;BME280;3042;43.194;27.646;2023-08-07T12:48:41;100744.16;;;35.65;58.52
6028;BME280;3042;43.194;27.646;2023-08-07T12:51:08;100749.34;;;35.68;57.60
6028;BME280;3042;43.194;27.646;2023-08-07T12:53:35;100752.16;;;35.66;58.29
6028;BME280;3042;43.194;27.646;2023-08-07T12:56:02;100750.91;;;35.72;60.19
6028;BME280;3042;43.194;27.646;2023-08-07T12:58:32;100743.25;;;35.80;58.94
6028;BME280;3042;43.194;27.646;2023-08-07T13:00:59;100743.25;;;35.80;60.63